Time;durP1;ratioP1;P1;durP2;ratioP2;P2;SDS_P1;SDS_P2;PMS_P1;PMS_P2;Temp;Humidity;BMP_temperature;BMP_pressure;BME280_temperature;BME280_humidity;BME280_pressure;Samples;Min_cycle;Max_cycle;Signal;HPM_P1;HPM_P2
2021/12/24 00:00:10;;;;;;;15.35;8.15;;;-3.10;99.90;;;-3.78;82.60;97050.81;172888;28;1159;-76
2021/12/24 00:00:20;;;;;;;17.17;8.05;;;-3.00;99.90;;;-3.60;82.71;97070.53;174012;28;1236;-76
2021/12/24 00:00:27;;;;;;;18.08;8.06;;;-3.10;99.90;;;-3.46;83.12;97099.31;174018;28;1133;-76
2021/12/24 00:00:36;;;;;;;20.27;8.03;;;-3.10;99.90;;;-3.56;82.88;97076.41;172593;28;1436;-75
2021/12/24 00:00:44;;;;;;;17.87;8.00;;;-3.00;99.90;;;-3.54;82.74;97078.00;171883;28;1556;-76
2021/12/24 00:00:50;;;;;;;17.95;8.17;;;-3.10;99.90;;;-3.42;82.98;97098.16;172664;28;1355;-76
2021/12/24 00:00:57;;;;;;;18.50;8.68;;;-3.00;99.90;;;-3.51;82.74;97080.41;172573;28;918;-76
2021/12/24 00:01:09;;;;;;;16.73;8.70;;;-3.10;99.90;;;-3.40;82.71;97097.19;172783;28;1394;-76
2021/12/24 00:01:21;;;;;;;17.19;8.48;;;-3.10;99.90;;;-3.40;82.96;97097.19;173297;28;1254;-76
2021/12/24 00:01:27;;;;;;;18.30;8.61;;;-3.00;99.90;;;-3.42;82.56;97087.63;173175;28;1371;-76
2021/12/24 00:01:33;;;;;;;19.40;8.43;;;-3.10;99.90;;;-3.43;82.65;97082.50;173200;28;871;-75
2021/12/24 00:01:39;;;;;;;19.88;8.80;;;-3.00;99.90;;;-3.41;82.50;97091.09;172607;28;871;-76
2021/12/24 00:01:45;;;;;;;19.52;9.07;;;-3.10;99.90;;;-3.53;82.48;97069.16;173972;28;1022;-76
2021/12/24 00:01:52;;;;;;;18.88;9.00;;;-3.10;99.90;;;-3.49;82.59;97080.31;173989;28;950;-75
2021/12/24 00:01:58;;;;;;;19.04;9.14;;;-3.10;99.90;;;-3.38;82.43;97100.56;173156;28;1333;-76
2021/12/24 00:02:04;;;;;;;19.73;9.48;;;-3.10;99.90;;;-3.39;82.69;97091.00;170588;28;1403;-77
2021/12/24 00:02:10;;;;;;;19.17;9.33;;;-3.00;99.90;;;-3.50;82.71;97081.25;171221;28;1804;-76
2021/12/24 00:02:16;;;;;;;19.38;9.02;;;-3.00;99.90;;;-3.47;82.91;97081.00;171898;28;991;-76
2021/12/24 00:02:22;;;;;;;19.05;8.88;;;-3.00;99.90;;;-3.46;82.84;97091.44;172016;28;1549;-75
2021/12/24 00:02:28;;;;;;;18.52;8.73;;;-3.00;99.90;;;-3.36;82.58;97096.03;171337;28;1148;-75
2021/12/24 00:02:34;;;;;;;17.73;8.40;;;-3.00;99.90;;;-3.37;82.45;97095.22;171541;28;1295;-75
2021/12/24 00:02:40;;;;;;;17.90;8.40;;;-3.00;99.90;;;-3.35;82.88;97095.06;172129;28;876;-75
2021/12/24 00:02:47;;;;;;;17.40;8.80;;;-3.00;99.90;;;-3.42;82.62;97086.81;172811;28;1963;-76
2021/12/24 00:02:54;;;;;;;17.18;8.78;;;-3.00;99.90;;;-3.31;82.68;97105.25;172096;28;934;-76
2021/12/24 00:03:00;;;;;;;17.08;8.80;;;-3.00;99.90;;;-3.29;82.49;97107.78;171975;28;1780;-76
2021/12/24 00:03:08;;;;;;;18.50;8.80;;;-3.00;99.90;;;-3.35;82.84;97101.19;172556;28;947;-76
2021/12/24 00:03:14;;;;;;;20.13;8.50;;;-3.00;99.90;;;-3.36;82.42;97096.03;172635;28;1264;-76
2021/12/24 00:03:20;;;;;;;20.32;8.36;;;-3.00;99.90;;;-3.32;82.47;97108.03;171863;28;1425;-76
2021/12/24 00:03:27;;;;;;;19.52;8.23;;;-3.00;99.90;;;-3.30;82.32;97100.84;172503;28;1172;-76
2021/12/24 00:03:33;;;;;;;19.27;8.50;;;-3.00;99.90;;;-3.39;82.46;97085.72;171943;28;820;-76
2021/12/24 00:03:40;;;;;;;20.50;8.67;;;-3.00;99.90;;;-3.32;82.63;97100.13;172509;28;859;-75
2021/12/24 00:03:46;;;;;;;19.83;8.93;;;-3.00;99.90;;;-3.32;82.67;97102.78;171894;28;1568;-76
2021/12/24 00:03:52;;;;;;;20.45;9.45;;;-3.00;99.90;;;-3.42;82.40;97083.34;172445;28;1339;-76
2021/12/24 00:03:58;;;;;;;21.13;9.65;;;-3.00;99.90;;;-3.29;82.43;97105.16;171012;28;1053;-76
2021/12/24 00:04:05;;;;;;;20.33;9.40;;;-3.00;99.90;;;-3.42;82.68;97079.72;170183;29;1227;-76
2021/12/24 00:04:12;;;;;;;18.84;9.52;;;-3.00;99.90;;;-3.31;82.54;97109.69;173196;28;1481;-76
2021/12/24 00:04:18;;;;;;;18.56;9.66;;;-3.00;99.90;;;-3.29;82.62;97108.63;173214;28;1465;-75
2021/12/24 00:04:25;;;;;;;18.28;9.26;;;-3.00;99.90;;;-3.27;82.68;97108.53;171215;28;1486;-75
2021/12/24 00:04:31;;;;;;;19.63;9.43;;;-3.00;99.90;;;-3.45;82.54;97079.97;171930;28;1387;-76
2021/12/24 00:04:37;;;;;;;20.13;9.27;;;-3.00;99.90;;;-3.25;82.62;97117.16;171860;28;1121;-76
2021/12/24 00:04:43;;;;;;;21.15;9.07;;;-3.00;99.90;;;-3.30;82.78;97106.94;171769;28;1432;-75
2021/12/24 00:04:49;;;;;;;23.08;9.30;;;-3.00;99.90;;;-3.31;81.93;97101.78;171864;28;899;-76
2021/12/24 00:04:55;;;;;;;22.95;9.13;;;-3.00;99.90;;;-3.34;82.29;97096.75;173251;28;1215;-76
2021/12/24 00:05:02;;;;;;;22.63;8.70;;;-3.00;99.90;;;-3.29;82.02;97102.53;172575;28;1156;-76
2021/12/24 00:05:09;;;;;;;21.40;8.43;;;-3.00;99.90;;;-3.34;82.00;97099.41;171944;28;813;-76
2021/12/24 00:05:15;;;;;;;19.38;8.18;;;-3.00;99.90;;;-3.31;82.25;97105.25;171923;28;1259;-76
2021/12/24 00:05:22;;;;;;;17.38;8.00;;;-3.00;99.90;;;-3.46;82.12;97085.31;172481;28;1554;-76
2021/12/24 00:05:28;;;;;;;16.07;8.10;;;-3.00;99.90;;;-3.57;82.10;97069.47;172526;28;1462;-76
2021/12/24 00:05:34;;;;;;;14.93;8.23;;;-3.00;99.90;;;-3.52;82.27;97076.09;170712;29;841;-76
2021/12/24 00:05:41;;;;;;;15.47;8.40;;;-3.00;99.90;;;-3.39;82.23;97094.47;173948;28;1287;-75
2021/12/24 00:05:48;;;;;;;15.57;8.23;;;-3.00;99.90;;;-3.44;82.29;97080.81;171867;28;1291;-76
2021/12/24 00:05:54;;;;;;;16.74;8.42;;;-3.00;99.90;;;-3.38;82.20;97101.41;171403;28;910;-76
2021/12/24 00:06:06;;;;;;;17.47;8.70;;;-3.00;99.90;;;-3.43;82.17;97093.03;172538;28;1406;-76
2021/12/24 00:06:13;;;;;;;18.20;8.74;;;-3.00;99.90;;;-3.50;82.26;97078.63;173552;28;1208;-76
2021/12/24 00:06:19;;;;;;;18.80;8.94;;;-3.00;99.90;;;-3.39;82.45;97096.25;173098;28;1429;-76
2021/12/24 00:06:25;;;;;;;18.98;9.02;;;-3.00;99.90;;;-3.47;82.14;97083.63;173977;28;1056;-76
2021/12/24 00:06:31;;;;;;;19.80;8.95;;;-3.00;99.90;;;-3.68;82.69;97043.13;173301;28;906;-76
2021/12/24 00:06:37;;;;;;;19.15;8.95;;;-3.00;99.90;;;-3.45;82.56;97079.13;173226;28;1310;-76
2021/12/24 00:06:43;;;;;;;18.98;9.15;;;-3.00;99.90;;;-3.42;82.39;97083.34;174774;28;871;-76
2021/12/24 00:06:52;;;;;;;18.63;8.93;;;-3.00;99.90;;;-3.52;82.74;97070.81;173893;28;1315;-76
2021/12/24 00:06:58;;;;;;;16.57;8.37;;;-3.00;99.90;;;-3.46;82.79;97083.53;172609;28;1046;-76
2021/12/24 00:07:04;;;;;;;16.17;8.23;;;-3.00;99.90;;;-3.40;82.47;97098.03;172572;28;1433;-76
2021/12/24 00:07:10;;;;;;;16.64;7.92;;;-3.00;99.90;;;-3.43;82.38;97090.38;173236;28;934;-76
2021/12/24 00:07:16;;;;;;;16.60;7.88;;;-3.10;99.90;;;-3.39;82.49;97089.22;173944;28;1282;-76
2021/12/24 00:07:22;;;;;;;17.07;7.97;;;-3.10;99.90;;;-3.41;82.52;97085.84;173283;28;1307;-76
2021/12/24 00:07:28;;;;;;;18.48;8.43;;;-3.10;99.90;;;-3.45;82.72;97085.22;173792;28;1345;-76
2021/12/24 00:07:34;;;;;;;19.75;8.85;;;-3.10;99.90;;;-3.44;82.75;97084.28;173934;28;1217;-75
2021/12/24 00:07:41;;;;;;;19.35;8.73;;;-3.10;99.90;;;-3.46;82.76;97078.28;173234;28;1472;-76
2021/12/24 00:07:47;;;;;;;21.62;9.18;;;-3.10;99.90;;;-3.49;82.53;97070.63;173599;28;1445;-76
2021/12/24 00:07:53;;;;;;;22.03;9.20;;;-3.00;99.90;;;-3.48;82.50;97074.09;173128;28;1295;-76
2021/12/24 00:08:00;;;;;;;20.88;8.82;;;-3.10;99.90;;;-3.42;82.46;97090.25;174003;28;917;-76
2021/12/24 00:08:07;;;;;;;20.13;8.57;;;-3.10;99.90;;;-3.58;82.45;97071.28;172530;28;1443;-76
2021/12/24 00:08:13;;;;;;;19.27;8.60;;;-3.10;99.90;;;-3.58;82.44;97066.03;173260;28;1453;-76
2021/12/24 00:08:19;;;;;;;19.17;8.50;;;-3.00;99.90;;;-3.42;82.89;97085.97;173251;28;1478;-76
2021/12/24 00:08:26;;;;;;;20.25;8.85;;;-3.10;99.90;;;-3.41;82.73;97088.47;171562;28;1678;-76
2021/12/24 00:08:34;;;;;;;22.02;9.14;;;-3.00;99.90;;;-3.50;82.55;97068.94;170549;28;1298;-76
2021/12/24 00:08:43;;;;;;;21.37;9.12;;;-3.00;99.90;;;-3.72;82.37;97039.84;170600;29;1034;-77
2021/12/24 00:08:49;;;;;;;21.50;8.70;;;-3.00;99.90;;;-3.42;82.52;97090.25;171884;28;1302;-76
2021/12/24 00:08:55;;;;;;;20.30;8.25;;;-3.10;99.90;;;-3.41;82.42;97088.47;173204;28;1332;-76
2021/12/24 00:09:04;;;;;;;19.30;8.05;;;-3.00;99.90;;;-3.58;82.47;97063.41;171853;28;1548;-76
2021/12/24 00:09:10;;;;;;;19.00;7.97;;;-3.10;99.90;;;-3.38;82.46;97095.31;171311;28;817;-76
2021/12/24 00:09:22;;;;;;;17.80;8.05;;;-3.00;99.90;;;-3.39;82.44;97091.00;172592;28;935;-76
2021/12/24 00:09:32;;;;;;;18.35;8.65;;;-3.00;99.90;;;-3.54;82.47;97067.47;171958;28;1462;-76
2021/12/24 00:09:39;;;;;;;17.81;8.69;;;-3.10;99.90;;;-3.39;82.41;97089.22;171846;28;1283;-75
2021/12/24 00:09:45;;;;;;;19.83;8.80;;;-3.00;99.90;;;-3.44;82.09;97081.66;172580;28;1428;-75
2021/12/24 00:09:51;;;;;;;19.63;8.77;;;-3.00;99.90;;;-3.40;82.16;97086.69;173414;28;946;-76
2021/12/24 00:09:57;;;;;;;18.95;8.63;;;-3.10;99.90;;;-3.44;82.36;97080.81;172607;28;1204;-76
2021/12/24 00:10:07;;;;;;;18.70;8.50;;;-3.00;99.90;;;-3.33;82.50;97095.81;173335;28;879;-75
2021/12/24 00:10:14;;;;;;;18.28;8.60;;;-3.00;99.90;;;-3.35;82.44;97095.06;171870;28;1448;-76
2021/12/24 00:10:20;;;;;;;18.00;8.57;;;-3.00;99.90;;;-3.45;82.08;97079.97;172693;28;869;-76
2021/12/24 00:10:27;;;;;;;18.78;8.74;;;-3.00;99.90;;;-3.40;82.19;97084.03;171925;28;848;-76
2021/12/24 00:10:36;;;;;;;18.23;8.97;;;-3.00;99.90;;;-3.41;82.18;97085.84;171948;28;1415;-76
2021/12/24 00:10:45;;;;;;;18.10;8.77;;;-3.00;99.90;;;-3.37;82.37;97084.69;171900;28;1256;-76
2021/12/24 00:10:58;;;;;;;17.30;8.80;;;-3.00;99.90;;;-3.38;82.22;97090.06;171970;28;1323;-76
2021/12/24 00:11:06;;;;;;;17.91;8.69;;;-3.00;99.90;;;-3.42;82.53;97078.06;170634;29;1236;-75
2021/12/24 00:11:14;;;;;;;18.23;8.20;;;-3.00;99.90;;;-3.50;82.19;97074.19;172515;28;1356;-76
2021/12/24 00:11:20;;;;;;;19.77;8.09;;;-3.00;99.90;;;-3.42;82.35;97089.44;173019;28;1570;-76
2021/12/24 00:11:26;;;;;;;20.40;7.93;;;-3.00;99.90;;;-3.49;82.62;97075.88;173282;28;1214;-76
2021/12/24 00:11:35;;;;;;;19.23;7.70;;;-3.00;99.90;;;-3.38;82.84;97096.16;171888;28;1217;-75
2021/12/24 00:11:41;;;;;;;19.50;7.90;;;-3.00;99.90;;;-3.57;82.54;97064.22;172664;28;962;-76
2021/12/24 00:11:50;;;;;;;21.05;8.15;;;-3.10;99.90;;;-3.40;82.43;97092.78;172458;28;1374;-75
2021/12/24 00:11:59;;;;;;;20.83;8.44;;;-3.10;99.90;;;-3.35;82.40;97102.97;171148;28;2618;-76
2021/12/24 00:12:13;;;;;;;22.07;8.93;;;-3.00;99.90;;;-3.42;82.80;97085.00;172050;28;974;-76
2021/12/24 00:12:21;;;;;;;21.54;8.99;;;-3.10;99.90;;;-3.40;82.64;97091.94;173174;28;1574;-76
2021/12/24 00:12:30;;;;;;;20.77;8.80;;;-3.10;99.90;;;-3.47;82.73;97078.38;173377;28;871;-76
2021/12/24 00:12:43;;;;;;;19.84;8.76;;;-3.10;99.90;;;-3.40;82.95;97097.19;171829;28;1609;-76
2021/12/24 00:12:57;;;;;;;20.24;8.94;;;-3.10;99.90;;;-3.42;82.85;97097.34;170643;29;1209;-76
2021/12/24 00:13:09;;;;;;;22.38;9.48;;;-3.10;99.90;;;-3.49;83.02;97073.25;172604;28;1477;-75
2021/12/24 00:13:16;;;;;;;22.86;9.36;;;-3.00;99.90;;;-3.48;83.22;97077.56;172486;28;1752;-76
2021/12/24 00:13:22;;;;;;;22.53;9.13;;;-3.10;99.90;;;-3.51;83.10;97072.50;173342;28;944;-76
2021/12/24 00:13:36;;;;;;;23.63;8.70;;;-3.00;99.90;;;-3.37;82.98;97097.00;171833;28;1299;-76
2021/12/24 00:13:46;;;;;;;20.48;8.29;;;-3.00;99.90;;;-3.40;82.94;97094.56;172507;28;1487;-76
2021/12/24 00:13:53;;;;;;;18.93;7.83;;;-3.00;99.90;;;-3.36;82.94;97107.38;173408;28;946;-76
2021/12/24 00:14:01;;;;;;;16.37;7.90;;;-3.00;99.90;;;-3.40;82.85;97094.56;172465;28;1318;-75
2021/12/24 00:14:08;;;;;;;15.76;7.93;;;-3.00;99.90;;;-3.39;82.94;97104.16;172515;28;1366;-76
2021/12/24 00:14:14;;;;;;;16.07;8.00;;;-3.10;99.90;;;-3.44;82.83;97091.34;173324;28;926;-77
2021/12/24 00:14:22;;;;;;;18.30;8.62;;;-3.00;99.90;;;-3.45;82.99;97094.91;171717;28;1351;-76
2021/12/24 00:14:30;;;;;;;18.33;8.67;;;-3.10;99.90;;;-3.48;82.64;97088.09;173220;28;1109;-75
2021/12/24 00:14:41;;;;;;;18.20;8.50;;;-3.10;99.90;;;-3.57;82.95;97078.22;172451;28;1361;-76
2021/12/24 00:14:51;;;;;;;17.71;8.81;;;-3.00;99.90;;;-3.48;82.76;97101.25;173099;28;1610;-75
2021/12/24 00:15:02;;;;;;;16.89;8.62;;;-3.10;99.90;;;-3.58;82.94;97080.97;172581;28;1220;-76
2021/12/24 00:15:28;;;;;;;18.99;8.81;;;-3.10;99.90;;;-3.42;82.90;97110.50;171939;28;1237;-76
2021/12/24 00:16:07;;;;;;;16.10;8.10;;;-3.10;99.90;;;-3.41;82.99;97109.50;172088;28;829;-76
2021/12/24 00:16:22;;;;;;;17.90;8.26;;;-3.10;99.90;;;-3.39;82.86;97112.03;171285;28;1239;-76
2021/12/24 00:16:38;;;;;;;19.40;8.48;;;-3.10;99.90;;;-3.42;83.41;97114.91;170523;28;1521;-75
2021/12/24 00:16:50;;;;;;;17.20;8.02;;;-3.10;99.90;;;-3.47;83.34;97097.63;171897;28;1248;-76
2021/12/24 00:17:01;;;;;;;20.02;8.43;;;-3.10;99.90;;;-3.48;83.24;97098.63;173035;28;1536;-76
2021/12/24 00:17:07;;;;;;;21.69;8.78;;;-3.10;99.90;;;-3.40;83.33;97111.19;171040;28;1638;-76
2021/12/24 00:17:15;;;;;;;21.20;8.77;;;-3.10;99.90;;;-3.44;83.21;97096.59;170900;28;972;-76
2021/12/24 00:17:27;;;;;;;18.57;8.40;;;-3.10;99.90;;;-3.38;83.22;97109.31;172727;28;915;-76
2021/12/24 00:17:35;;;;;;;17.63;8.00;;;-3.10;99.90;;;-3.56;82.77;97065.91;172408;28;1717;-76
2021/12/24 00:17:41;;;;;;;18.52;8.06;;;-3.10;99.90;;;-3.40;83.14;97099.84;171946;28;970;-76
2021/12/24 00:17:47;;;;;;;19.25;8.18;;;-3.10;99.90;;;-3.52;82.98;97075.25;171998;28;1459;-76
2021/12/24 00:18:01;;;;;;;18.67;8.15;;;-3.10;99.90;;;-3.48;83.24;97077.56;173272;28;808;-76
2021/12/24 00:18:58;;;;;;;18.70;8.35;;;-3.10;99.90;;;-3.55;82.91;97063.16;169245;29;791;-75
2021/12/24 00:18:59;;;;;;;18.60;8.20;;;-3.10;99.90;;;-3.49;82.94;97082.94;173113;28;1491;-76
2021/12/24 00:19:19;;;;;;;19.77;8.13;;;-3.10;99.90;;;-3.44;83.02;97083.44;171844;28;1260;-76
2021/12/24 00:19:46;;;;;;;19.58;7.97;;;-3.10;99.90;;;-3.42;82.90;97089.44;171923;28;1379;-76
2021/12/24 00:22:44;;;;;;;17.27;7.85;;;-3.10;99.90;;;-3.48;83.54;97067.03;172555;28;1224;-75
2021/12/24 00:35:06;;;;;;;18.39;8.27;;;-3.10;99.90;;;-3.43;83.48;97079.88;169937;29;1214;-76
2021/12/24 00:35:22;;;;;;;20.00;8.57;;;-3.20;99.90;;;-3.42;83.10;97082.34;171995;28;1205;-76
2021/12/24 00:35:33;;;;;;;17.74;8.10;;;-3.10;99.90;;;-3.42;82.93;97090.25;171192;28;1336;-76
2021/12/24 00:35:40;;;;;;;17.09;7.78;;;-3.10;99.90;;;-3.47;82.88;97075.75;170630;29;1667;-76
2021/12/24 00:35:46;;;;;;;17.78;7.84;;;-3.10;99.90;;;-3.56;82.67;97065.91;171305;28;1606;-76
2021/12/24 00:35:52;;;;;;;18.40;7.88;;;-3.10;99.90;;;-3.34;83.10;97096.75;173196;28;1176;-76
2021/12/24 00:35:58;;;;;;;17.87;7.93;;;-3.10;99.90;;;-3.52;83.03;97068.19;171935;28;989;-76
2021/12/24 00:36:04;;;;;;;16.25;7.80;;;-3.10;99.90;;;-3.40;82.75;97082.25;171860;28;1314;-76
2021/12/24 00:36:10;;;;;;;15.73;7.57;;;-3.10;99.90;;;-3.41;82.95;97080.56;173369;28;855;-75
2021/12/24 00:36:16;;;;;;;16.25;7.72;;;-3.10;99.90;;;-3.50;82.90;97060.19;173324;28;1011;-76
2021/12/24 00:36:22;;;;;;;18.50;7.97;;;-3.10;99.90;;;-3.45;82.75;97073.84;171846;28;1330;-76
2021/12/24 00:36:28;;;;;;;18.08;7.97;;;-3.10;99.90;;;-3.40;82.76;97082.25;171897;28;900;-76
2021/12/24 00:36:34;;;;;;;19.27;8.63;;;-3.10;99.90;;;-3.38;83.05;97087.41;173335;28;1993;-75
2021/12/24 00:36:40;;;;;;;19.88;8.95;;;-3.10;99.90;;;-3.53;82.82;97060.44;174479;28;1191;-76
2021/12/24 00:36:46;;;;;;;18.67;8.70;;;-3.10;99.90;;;-3.44;82.82;97075.53;173186;28;1212;-76
2021/12/24 00:36:52;;;;;;;15.82;8.52;;;-3.10;99.90;;;-3.50;82.89;97068.94;173882;28;1172;-76
2021/12/24 00:36:58;;;;;;;16.33;8.32;;;-3.10;99.90;;;-3.59;82.82;97045.94;173939;28;1246;-76
2021/12/24 00:37:04;;;;;;;16.30;7.85;;;-3.10;99.90;;;-3.44;83.10;97070.28;173568;28;1026;-76
2021/12/24 00:37:11;;;;;;;17.17;7.77;;;-3.10;99.90;;;-3.78;82.80;97011.38;173400;28;847;-76
2021/12/24 00:37:19;;;;;;;17.38;7.92;;;-3.10;99.90;;;-3.51;83.21;97053.25;171835;28;1441;-76
2021/12/24 00:37:25;;;;;;;19.77;8.63;;;-3.10;99.90;;;-3.50;83.19;97054.94;173254;28;1412;-75
2021/12/24 00:37:31;;;;;;;19.05;8.95;;;-3.10;99.90;;;-3.41;83.21;97077.94;172619;28;840;-76
2021/12/24 00:37:44;;;;;;;17.85;8.77;;;-3.10;99.90;;;-3.48;82.96;97063.56;172410;28;1589;-75
2021/12/24 00:37:50;;;;;;;18.77;8.96;;;-3.10;99.90;;;-3.54;83.27;97056.97;171269;28;1301;-76
2021/12/24 00:38:03;;;;;;;18.08;8.38;;;-3.10;99.90;;;-3.44;82.96;97081.66;172534;28;1259;-76
2021/12/24 00:38:11;;;;;;;17.91;8.15;;;-3.10;99.90;;;-3.44;83.42;97078.19;174042;28;1199;-76
2021/12/24 00:38:17;;;;;;;17.50;8.02;;;-3.10;99.90;;;-3.44;83.17;97080.81;173836;28;1342;-76
2021/12/24 00:38:23;;;;;;;18.48;8.13;;;-3.10;99.90;;;-3.39;83.45;97091.00;173261;28;1401;-76
2021/12/24 00:38:29;;;;;;;17.98;8.05;;;-3.10;99.90;;;-3.47;83.34;97079.22;174611;28;1315;-76
2021/12/24 00:38:35;;;;;;;19.33;8.43;;;-3.10;99.90;;;-3.41;83.56;97091.09;172439;28;1587;-76
2021/12/24 00:38:41;;;;;;;18.35;8.68;;;-3.10;99.90;;;-3.49;83.15;97075.88;170647;29;804;-76
2021/12/24 00:38:48;;;;;;;18.55;8.82;;;-3.10;99.90;;;-3.58;83.10;97063.41;171335;28;1043;-76
2021/12/24 00:38:54;;;;;;;17.63;8.88;;;-3.10;99.90;;;-3.47;83.05;97081.84;172006;28;871;-76
2021/12/24 00:39:00;;;;;;;17.08;8.65;;;-3.10;99.90;;;-3.56;83.47;97069.38;171907;28;994;-76
2021/12/24 00:39:06;;;;;;;16.23;8.53;;;-3.10;99.90;;;-3.55;83.12;97070.22;172958;28;1841;-76
2021/12/24 00:39:12;;;;;;;16.48;8.27;;;-3.10;99.90;;;-3.57;83.42;97065.06;172543;28;1302;-76
2021/12/24 00:39:18;;;;;;;16.42;8.25;;;-3.10;99.90;;;-3.55;83.29;97072.84;173228;28;1169;-76
2021/12/24 00:39:24;;;;;;;17.07;8.43;;;-3.10;99.90;;;-3.55;82.87;97073.69;172658;28;1374;-76
2021/12/24 00:39:31;;;;;;;17.33;8.35;;;-3.10;99.90;;;-3.50;82.70;97083.88;171340;28;908;-76
2021/12/24 00:39:47;;;;;;;17.26;8.36;;;-3.10;99.90;;;-3.48;82.91;97082.84;172561;28;1099;-76
2021/12/24 00:40:13;;;;;;;17.27;8.11;;;-3.10;99.90;;;-3.55;83.43;97062.31;173098;28;1594;-76
2021/12/24 00:40:20;;;;;;;17.67;8.00;;;-3.10;99.90;;;-3.54;82.96;97070.13;174288;28;1506;-76
2021/12/24 00:40:26;;;;;;;17.10;8.20;;;-3.10;99.90;;;-3.50;83.13;97066.31;173258;28;1376;-76
2021/12/24 00:40:45;;;;;;;18.58;8.20;;;-3.10;99.90;;;-3.48;82.82;97068.84;173336;28;946;-76
2021/12/24 00:40:52;;;;;;;17.69;8.01;;;-3.10;99.90;;;-3.41;82.90;97080.56;173491;28;1222;-76
2021/12/24 00:40:58;;;;;;;17.06;8.24;;;-3.10;99.90;;;-3.50;83.13;97071.56;173929;28;848;-76
2021/12/24 00:41:05;;;;;;;16.27;8.38;;;-3.20;99.90;;;-3.51;82.78;97058.50;175412;28;966;-76
2021/12/24 00:41:13;;;;;;;16.57;8.43;;;-3.10;99.90;;;-3.47;83.10;97062.59;174012;28;892;-76
2021/12/24 00:41:19;;;;;;;16.20;8.20;;;-3.10;99.90;;;-3.49;83.00;97067.16;174037;28;1630;-76
2021/12/24 00:41:25;;;;;;;17.52;8.60;;;-3.10;99.90;;;-3.45;83.13;97077.34;171952;28;1234;-75
2021/12/24 00:41:31;;;;;;;17.92;8.32;;;-3.10;99.90;;;-3.55;82.84;97052.66;171151;28;1129;-76
2021/12/24 00:41:37;;;;;;;19.05;8.43;;;-3.10;99.90;;;-3.68;82.89;97035.25;172347;28;1296;-76
2021/12/24 00:41:43;;;;;;;20.07;8.60;;;-3.10;99.90;;;-3.65;83.03;97041.09;173161;28;1276;-76
2021/12/24 00:41:49;;;;;;;21.40;8.73;;;-3.20;99.90;;;-3.50;82.96;97065.47;173349;28;1380;-76
2021/12/24 00:41:55;;;;;;;19.85;8.40;;;-3.20;99.90;;;-3.56;82.99;97053.59;172534;28;1325;-76
2021/12/24 00:42:01;;;;;;;20.25;8.65;;;-3.20;99.90;;;-3.46;83.14;97066.91;173181;28;1247;-76
2021/12/24 00:42:07;;;;;;;18.05;8.18;;;-3.20;99.90;;;-3.55;83.29;97059.69;173325;28;895;-76
2021/12/24 00:42:14;;;;;;;16.97;7.97;;;-3.20;99.90;;;-3.49;83.35;97068.00;173411;28;1397;-76
2021/12/24 00:42:20;;;;;;;17.57;8.13;;;-3.20;99.90;;;-3.50;83.43;97061.03;169997;29;1522;-76
2021/12/24 00:42:25;;;;;;;18.10;8.23;;;-3.20;99.90;;;-3.62;83.58;97038.25;171918;28;1019;-76
2021/12/24 00:42:33;;;;;;;17.90;8.38;;;-3.20;99.90;;;-3.48;83.16;97072.31;171242;28;809;-76
2021/12/24 00:42:43;;;;;;;20.10;8.70;;;-3.20;99.90;;;-3.62;83.36;97051.41;171886;28;1245;-76
2021/12/24 00:42:55;;;;;;;20.06;8.89;;;-3.10;99.90;;;-3.48;82.98;97071.47;172042;28;1235;-76
2021/12/24 00:43:02;;;;;;;20.26;9.02;;;-3.20;99.90;;;-3.57;83.44;97066.84;172575;28;1499;-76
2021/12/24 00:43:10;;;;;;;19.42;8.86;;;-3.10;99.90;;;-3.50;83.31;97078.63;171212;28;1287;-76
2021/12/24 00:43:17;;;;;;;20.50;8.93;;;-3.20;99.90;;;-3.42;83.44;97094.69;170544;29;1448;-76
2021/12/24 00:43:24;;;;;;;19.43;8.40;;;-3.10;99.90;;;-3.53;83.30;97082.31;171925;28;1341;-76
2021/12/24 00:43:30;;;;;;;20.04;8.48;;;-3.10;99.90;;;-3.52;83.60;97083.97;171960;28;1452;-76
2021/12/24 00:43:36;;;;;;;19.05;8.15;;;-3.10;99.90;;;-3.55;83.28;97068.44;170815;29;841;-76
2021/12/24 00:43:42;;;;;;;16.77;7.80;;;-3.10;99.90;;;-3.43;83.31;97098.28;171903;28;1485;-76
2021/12/24 00:43:48;;;;;;;16.77;8.15;;;-3.10;99.90;;;-3.57;83.64;97069.47;172726;28;1070;-76
2021/12/24 00:43:54;;;;;;;18.37;8.67;;;-3.10;99.90;;;-3.49;83.55;97083.78;173461;28;1461;-76
2021/12/24 00:43:59;;;;;;;18.02;8.68;;;-3.10;99.90;;;-3.48;83.70;97087.25;172756;28;1023;-75
2021/12/24 00:44:05;;;;;;;18.10;8.85;;;-3.10;99.90;;;-3.51;83.14;97079.56;172072;28;1205;-75
2021/12/24 00:44:11;;;;;;;18.17;8.93;;;-3.10;99.90;;;-3.46;83.43;97088.81;173003;28;1439;-77
2021/12/24 00:44:17;;;;;;;17.17;8.85;;;-3.10;99.90;;;-3.46;83.02;97085.31;173417;28;1226;-75
2021/12/24 00:44:23;;;;;;;14.85;8.43;;;-3.10;99.90;;;-3.47;83.44;97086.28;173534;28;978;-76
2021/12/24 00:44:29;;;;;;;15.38;8.38;;;-3.10;99.90;;;-3.60;83.25;97057.41;174310;28;828;-76
2021/12/24 00:44:35;;;;;;;16.38;8.45;;;-3.10;99.90;;;-3.62;83.20;97051.41;172938;28;1068;-75
2021/12/24 00:44:41;;;;;;;17.70;8.67;;;-3.10;99.90;;;-3.52;83.39;97067.34;172412;28;1263;-76
2021/12/24 00:44:47;;;;;;;18.85;8.63;;;-3.10;99.90;;;-3.55;83.37;97057.06;173194;28;1185;-76
2021/12/24 00:44:53;;;;;;;19.45;8.60;;;-3.10;99.90;;;-3.49;83.38;97073.25;173778;28;1050;-76
2021/12/24 00:44:59;;;;;;;19.10;8.70;;;-3.10;99.90;;;-3.56;82.95;97055.38;174453;28;1262;-75
2021/12/24 00:45:06;;;;;;;20.95;8.95;;;-3.10;99.90;;;-3.43;83.39;97082.50;173788;28;1218;-75
2021/12/24 00:45:25;;;;;;;21.10;8.62;;;-3.10;99.90;;;-3.40;83.52;97079.63;173307;28;1719;-75
2021/12/24 00:45:39;;;;;;;21.00;8.49;;;-3.10;99.90;;;-3.42;83.10;97087.63;173443;28;2684;-76
2021/12/24 00:45:46;;;;;;;20.24;8.40;;;-3.10;99.90;;;-3.48;83.13;97074.09;173950;28;1227;-75
2021/12/24 00:45:52;;;;;;;20.24;8.08;;;-3.10;99.90;;;-3.45;83.37;97082.59;172419;28;943;-76
2021/12/24 00:45:58;;;;;;;20.65;8.65;;;-3.10;99.90;;;-3.62;83.37;97051.41;174250;28;1198;-75
2021/12/24 00:46:04;;;;;;;19.95;8.48;;;-3.10;99.90;;;-3.38;83.06;97090.06;174724;28;1061;-75
2021/12/24 00:46:10;;;;;;;18.80;8.38;;;-3.10;99.90;;;-3.46;83.19;97073.00;174010;28;1285;-75
2021/12/24 00:46:15;;;;;;;17.17;8.20;;;-3.10;99.90;;;-3.39;82.91;97089.22;172021;28;1184;-74
2021/12/24 00:46:21;;;;;;;16.70;8.27;;;-3.10;99.90;;;-3.44;82.89;97080.81;173351;28;1187;-75
2021/12/24 00:46:27;;;;;;;15.85;7.63;;;-3.10;99.90;;;-3.56;83.16;97064.09;174495;28;1199;-75
2021/12/24 00:46:34;;;;;;;16.77;7.70;;;-3.10;99.90;;;-3.51;83.18;97069.88;173368;28;1279;-75
2021/12/24 00:46:40;;;;;;;16.20;7.70;;;-3.10;99.90;;;-3.49;83.01;97072.41;173360;28;1034;-75
2021/12/24 00:46:46;;;;;;;16.60;7.85;;;-3.10;99.90;;;-3.38;83.11;97087.41;173214;28;1415;-75
2021/12/24 00:46:52;;;;;;;17.35;7.75;;;-3.10;99.90;;;-3.39;82.95;97089.22;172562;28;1173;-75
2021/12/24 00:46:58;;;;;;;16.53;7.73;;;-3.10;99.90;;;-3.50;83.10;97075.97;172749;28;1053;-75
2021/12/24 00:47:04;;;;;;;15.82;7.55;;;-3.10;99.90;;;-3.44;83.14;97081.66;173364;28;1109;-74
2021/12/24 00:47:10;;;;;;;16.00;7.63;;;-3.10;99.90;;;-3.46;83.18;97083.53;174167;28;1062;-75
2021/12/24 00:47:16;;;;;;;15.15;7.50;;;-3.10;99.90;;;-3.54;82.88;97078.00;174076;28;1353;-74
2021/12/24 00:47:22;;;;;;;15.00;7.60;;;-3.10;99.90;;;-3.50;82.94;97082.09;174233;28;1049;-75
2021/12/24 00:47:28;;;;;;;15.38;7.45;;;-3.10;99.90;;;-3.53;82.96;97066.53;173459;28;1104;-75
2021/12/24 00:47:34;;;;;;;15.80;7.53;;;-3.10;99.90;;;-3.50;82.99;97081.25;173034;28;1698;-75
2021/12/24 00:47:40;;;;;;;16.05;7.80;;;-3.10;99.90;;;-3.46;83.13;97088.81;172218;28;1358;-75
2021/12/24 00:47:49;;;;;;;17.24;7.90;;;-3.10;99.90;;;-3.70;83.25;97045.03;172455;28;1718;-75
2021/12/24 00:47:58;;;;;;;17.02;7.85;;;-3.10;99.90;;;-3.61;83.33;97062.75;172582;28;1129;-75
2021/12/24 00:48:07;;;;;;;16.33;7.90;;;-3.10;99.90;;;-3.56;83.31;97072.00;172621;28;1326;-75
2021/12/24 00:48:17;;;;;;;17.60;7.60;;;-3.10;99.90;;;-3.52;82.97;97083.13;171070;29;1279;-76
2021/12/24 00:48:23;;;;;;;17.61;7.41;;;-3.10;99.90;;;-3.48;83.25;97087.25;171212;28;1344;-76
2021/12/24 00:48:29;;;;;;;16.90;7.47;;;-3.20;99.90;;;-3.60;83.17;97072.34;172211;28;1058;-75
2021/12/24 00:48:35;;;;;;;17.83;7.70;;;-3.10;99.90;;;-3.50;83.06;97092.63;173447;28;1423;-75
2021/12/24 00:48:41;;;;;;;17.20;7.85;;;-3.20;99.90;;;-3.54;83.01;97078.00;171520;28;1361;-76
2021/12/24 00:48:48;;;;;;;15.75;7.90;;;-3.20;99.90;;;-3.52;83.14;97085.75;171374;28;903;-76
2021/12/24 00:48:55;;;;;;;16.67;8.00;;;-3.20;99.90;;;-3.58;83.42;97076.56;171519;28;904;-76
2021/12/24 00:49:01;;;;;;;17.73;7.73;;;-3.20;99.90;;;-3.49;83.40;97086.41;172588;28;1351;-76